sensor_id;sensor_type;location;lat;lon;timestamp;pressure;altitude;pressure_sealevel;temperature;humidity
11339;BME280;5724;42.684;23.252;2023-11-21T00:00:34;94163.03;;;4.23;94.90
11339;BME280;5724;42.684;23.252;2023-11-21T00:03:20;94167.16;;;4.29;95.37
11339;BME280;5724;42.684;23.252;2023-11-21T00:06:08;94167.19;;;4.21;95.34
11339;BME280;5724;42.684;23.252;2023-11-21T00:08:54;94162.44;;;4.18;95.53
11339;BME280;5724;42.684;23.252;2023-11-21T00:11:41;94164.16;;;4.14;94.90
11339;BME280;5724;42.684;23.252;2023-11-21T00:14:26;94170.34;;;4.23;95.20
11339;BME280;5724;42.684;23.252;2023-11-21T00:17:12;94174.50;;;4.20;94.81
11339;BME280;5724;42.684;23.252;2023-11-21T00:19:58;94174.63;;;4.24;94.84
11339;BME280;5724;42.684;23.252;2023-11-21T00:22:43;94174.97;;;4.22;94.81
11339;BME280;5724;42.684;23.252;2023-11-21T00:25:29;94169.41;;;4.19;95.40
11339;BME280;5724;42.684;23.252;2023-11-21T00:28:16;94164.03;;;4.10;95.51
11339;BME280;5724;42.684;23.252;2023-11-21T00:31:02;94157.06;;;4.00;95.92
11339;BME280;5724;42.684;23.252;2023-11-21T00:33:49;94167.22;;;4.03;96.44
11339;BME280;5724;42.684;23.252;2023-11-21T00:36:35;94163.72;;;4.03;96.65
11339;BME280;5724;42.684;23.252;2023-11-21T00:39:21;94163.13;;;3.89;96.91
11339;BME280;5724;42.684;23.252;2023-11-21T00:42:07;94161.69;;;3.91;96.69
11339;BME280;5724;42.684;23.252;2023-11-21T00:44:53;94162.50;;;3.83;97.14
11339;BME280;5724;42.684;23.252;2023-11-21T00:47:40;94159.78;;;3.83;97.28
11339;BME280;5724;42.684;23.252;2023-11-21T00:50:26;94166.78;;;3.84;97.07
11339;BME280;5724;42.684;23.252;2023-11-21T00:53:12;94166.97;;;3.79;97.62
11339;BME280;5724;42.684;23.252;2023-11-21T00:55:58;94156.47;;;3.86;97.31
11339;BME280;5724;42.684;23.252;2023-11-21T00:58:44;94153.41;;;3.96;97.11
11339;BME280;5724;42.684;23.252;2023-11-21T01:01:32;94151.53;;;3.88;96.83
11339;BME280;5724;42.684;23.252;2023-11-21T01:04:18;94152.00;;;3.82;97.06
11339;BME280;5724;42.684;23.252;2023-11-21T01:07:03;94148.53;;;3.72;97.05
11339;BME280;5724;42.684;23.252;2023-11-21T01:09:51;94142.31;;;3.72;97.79
11339;BME280;5724;42.684;23.252;2023-11-21T01:12:37;94137.56;;;3.78;97.01
11339;BME280;5724;42.684;23.252;2023-11-21T01:15:23;94136.28;;;3.75;97.55
11339;BME280;5724;42.684;23.252;2023-11-21T01:18:11;94140.56;;;3.76;97.21
11339;BME280;5724;42.684;23.252;2023-11-21T01:20:57;94149.97;;;3.70;97.69
11339;BME280;5724;42.684;23.252;2023-11-21T01:23:43;94151.88;;;3.69;97.76
11339;BME280;5724;42.684;23.252;2023-11-21T01:26:29;94156.50;;;3.69;98.09
11339;BME280;5724;42.684;23.252;2023-11-21T01:29:14;94151.88;;;3.69;97.45
11339;BME280;5724;42.684;23.252;2023-11-21T01:32:02;94142.97;;;3.69;97.97
11339;BME280;5724;42.684;23.252;2023-11-21T01:34:50;94146.00;;;3.67;97.80
11339;BME280;5724;42.684;23.252;2023-11-21T01:37:37;94134.09;;;3.42;98.45
11339;BME280;5724;42.684;23.252;2023-11-21T01:40:23;94159.19;;;3.52;98.82
11339;BME280;5724;42.684;23.252;2023-11-21T01:43:09;94155.06;;;3.45;98.81
11339;BME280;5724;42.684;23.252;2023-11-21T01:45:55;94147.28;;;3.44;98.75
11339;BME280;5724;42.684;23.252;2023-11-21T01:48:44;94126.47;;;3.36;99.35
11339;BME280;5724;42.684;23.252;2023-11-21T01:51:30;94126.78;;;3.34;99.38
11339;BME280;5724;42.684;23.252;2023-11-21T01:54:18;94139.63;;;3.37;99.54
11339;BME280;5724;42.684;23.252;2023-11-21T01:57:05;94140.47;;;3.29;99.96
11339;BME280;5724;42.684;23.252;2023-11-21T01:59:54;94146.81;;;3.33;100.00
11339;BME280;5724;42.684;23.252;2023-11-21T02:02:40;94148.56;;;3.38;99.83
11339;BME280;5724;42.684;23.252;2023-11-21T02:05:25;94139.34;;;3.30;99.91
11339;BME280;5724;42.684;23.252;2023-11-21T02:08:11;94135.22;;;3.24;100.00
11339;BME280;5724;42.684;23.252;2023-11-21T02:10:57;94143.97;;;3.30;100.00
11339;BME280;5724;42.684;23.252;2023-11-21T02:13:44;94136.78;;;3.25;100.00
11339;BME280;5724;42.684;23.252;2023-11-21T02:16:31;94135.53;;;3.23;100.00
11339;BME280;5724;42.684;23.252;2023-11-21T02:19:19;94142.53;;;3.32;100.00
11339;BME280;5724;42.684;23.252;2023-11-21T02:22:10;94126.47;;;3.36;100.00
11339;BME280;5724;42.684;23.252;2023-11-21T02:24:57;94138.06;;;3.36;100.00
11339;BME280;5724;42.684;23.252;2023-11-21T02:27:43;94134.25;;;3.37;100.00
11339;BME280;5724;42.684;23.252;2023-11-21T02:30:29;94124.72;;;3.40;100.00
11339;BME280;5724;42.684;23.252;2023-11-21T02:33:18;94128.22;;;3.40;100.00
11339;BME280;5724;42.684;23.252;2023-11-21T02:36:06;94137.59;;;3.43;100.00
11339;BME280;5724;42.684;23.252;2023-11-21T02:38:51;94136.78;;;3.34;99.84
11339;BME280;5724;42.684;23.252;2023-11-21T02:41:37;94120.78;;;3.20;100.00
11339;BME280;5724;42.684;23.252;2023-11-21T02:44:24;94131.38;;;3.16;99.66
11339;BME280;5724;42.684;23.252;2023-11-21T02:47:10;94131.72;;;3.15;99.99
11339;BME280;5724;42.684;23.252;2023-11-21T02:49:56;94131.69;;;3.06;99.71
11339;BME280;5724;42.684;23.252;2023-11-21T02:52:41;94133.13;;;3.04;99.88
11339;BME280;5724;42.684;23.252;2023-11-21T02:55:28;94129.81;;;2.90;100.00
11339;BME280;5724;42.684;23.252;2023-11-21T02:58:13;94122.16;;;2.83;100.00
11339;BME280;5724;42.684;23.252;2023-11-21T03:01:00;94122.94;;;2.83;100.00
11339;BME280;5724;42.684;23.252;2023-11-21T03:03:46;94110.09;;;2.89;100.00
11339;BME280;5724;42.684;23.252;2023-11-21T03:06:36;94114.38;;;2.81;100.00
11339;BME280;5724;42.684;23.252;2023-11-21T03:09:22;94128.38;;;2.92;100.00
11339;BME280;5724;42.684;23.252;2023-11-21T03:12:09;94115.00;;;2.87;100.00
11339;BME280;5724;42.684;23.252;2023-11-21T03:14:55;94124.38;;;2.81;100.00
11339;BME280;5724;42.684;23.252;2023-11-21T03:17:41;94119.91;;;2.68;100.00
11339;BME280;5724;42.684;23.252;2023-11-21T03:20:27;94132.16;;;2.82;100.00
11339;BME280;5724;42.684;23.252;2023-11-21T03:23:13;94139.28;;;2.87;100.00
11339;BME280;5724;42.684;23.252;2023-11-21T03:25:59;94140.72;;;2.84;100.00
11339;BME280;5724;42.684;23.252;2023-11-21T03:28:45;94140.88;;;2.79;100.00
11339;BME280;5724;42.684;23.252;2023-11-21T03:31:31;94139.91;;;2.75;100.00
11339;BME280;5724;42.684;23.252;2023-11-21T03:34:25;94136.09;;;2.76;100.00
11339;BME280;5724;42.684;23.252;2023-11-21T03:37:14;94133.84;;;2.70;100.00
11339;BME280;5724;42.684;23.252;2023-11-21T03:39:59;94135.16;;;2.72;100.00
11339;BME280;5724;42.684;23.252;2023-11-21T03:42:45;94120.69;;;2.68;100.00
11339;BME280;5724;42.684;23.252;2023-11-21T03:45:31;94111.34;;;2.74;100.00
11339;BME280;5724;42.684;23.252;2023-11-21T03:48:17;94112.91;;;2.67;100.00
11339;BME280;5724;42.684;23.252;2023-11-21T03:51:03;94112.47;;;2.73;100.00
11339;BME280;5724;42.684;23.252;2023-11-21T03:53:49;94110.91;;;2.81;100.00
11339;BME280;5724;42.684;23.252;2023-11-21T03:56:35;94104.72;;;2.80;100.00
11339;BME280;5724;42.684;23.252;2023-11-21T03:59:20;94115.13;;;2.56;100.00
11339;BME280;5724;42.684;23.252;2023-11-21T04:02:07;94104.78;;;2.49;100.00
11339;BME280;5724;42.684;23.252;2023-11-21T04:04:53;94104.97;;;2.53;100.00
11339;BME280;5724;42.684;23.252;2023-11-21T04:07:39;94103.69;;;2.59;100.00
11339;BME280;5724;42.684;23.252;2023-11-21T04:10:25;94102.28;;;2.62;100.00
11339;BME280;5724;42.684;23.252;2023-11-21T04:13:10;94108.78;;;2.52;100.00
11339;BME280;5724;42.684;23.252;2023-11-21T04:15:56;94101.94;;;2.46;100.00
11339;BME280;5724;42.684;23.252;2023-11-21T04:18:42;94096.22;;;2.47;100.00
11339;BME280;5724;42.684;23.252;2023-11-21T04:21:28;94113.63;;;2.41;100.00
11339;BME280;5724;42.684;23.252;2023-11-21T04:24:13;94111.75;;;2.33;100.00
11339;BME280;5724;42.684;23.252;2023-11-21T04:26:59;94113.03;;;2.44;100.00
11339;BME280;5724;42.684;23.252;2023-11-21T04:29:45;94113.81;;;2.45;100.00
11339;BME280;5724;42.684;23.252;2023-11-21T04:32:31;94105.56;;;2.41;100.00
11339;BME280;5724;42.684;23.252;2023-11-21T04:35:16;94104.47;;;2.51;100.00
11339;BME280;5724;42.684;23.252;2023-11-21T04:38:02;94114.47;;;2.42;100.00
11339;BME280;5724;42.684;23.252;2023-11-21T04:40:48;94105.09;;;2.48;100.00
11339;BME280;5724;42.684;23.252;2023-11-21T04:43:34;94108.91;;;2.47;100.00
11339;BME280;5724;42.684;23.252;2023-11-21T04:46:19;94103.06;;;2.53;100.00
11339;BME280;5724;42.684;23.252;2023-11-21T04:49:05;94116.56;;;2.62;100.00
11339;BME280;5724;42.684;23.252;2023-11-21T04:51:51;94122.56;;;2.59;100.00
11339;BME280;5724;42.684;23.252;2023-11-21T04:54:37;94127.97;;;2.59;100.00
11339;BME280;5724;42.684;23.252;2023-11-21T04:57:22;94116.56;;;2.62;100.00
11339;BME280;5724;42.684;23.252;2023-11-21T05:00:09;94118.63;;;2.65;100.00
11339;BME280;5724;42.684;23.252;2023-11-21T05:02:55;94117.84;;;2.65;100.00
11339;BME280;5724;42.684;23.252;2023-11-21T05:05:41;94126.59;;;2.70;100.00
11339;BME280;5724;42.684;23.252;2023-11-21T05:08:26;94117.03;;;2.64;100.00
11339;BME280;5724;42.684;23.252;2023-11-21T05:11:23;94109.44;;;2.75;100.00
11339;BME280;5724;42.684;23.252;2023-11-21T05:14:09;94096.44;;;2.77;100.00
11339;BME280;5724;42.684;23.252;2023-11-21T05:16:55;94112.28;;;2.70;100.00
11339;BME280;5724;42.684;23.252;2023-11-21T05:19:41;94104.50;;;2.59;100.00
11339;BME280;5724;42.684;23.252;2023-11-21T05:22:26;94100.88;;;2.64;100.00
11339;BME280;5724;42.684;23.252;2023-11-21T05:25:13;94112.13;;;2.66;100.00
11339;BME280;5724;42.684;23.252;2023-11-21T05:27:59;94115.47;;;2.72;100.00
11339;BME280;5724;42.684;23.252;2023-11-21T05:30:46;94117.19;;;2.59;100.00
11339;BME280;5724;42.684;23.252;2023-11-21T05:33:32;94126.59;;;2.70;100.00
11339;BME280;5724;42.684;23.252;2023-11-21T05:36:18;94126.53;;;2.53;100.00
11339;BME280;5724;42.684;23.252;2023-11-21T05:39:04;94125.09;;;2.47;100.00
11339;BME280;5724;42.684;23.252;2023-11-21T05:41:50;94116.97;;;1.98;100.00
11339;BME280;5724;42.684;23.252;2023-11-21T05:44:37;94125.47;;;2.14;100.00
11339;BME280;5724;42.684;23.252;2023-11-21T05:47:22;94122.69;;;1.97;100.00
11339;BME280;5724;42.684;23.252;2023-11-21T05:49:53;94115.75;;;2.05;100.00
11339;BME280;5724;42.684;23.252;2023-11-21T05:52:18;94115.78;;;2.13;100.00
11339;BME280;5724;42.684;23.252;2023-11-21T05:54:44;94114.41;;;2.24;100.00
11339;BME280;5724;42.684;23.252;2023-11-21T05:57:30;94110.91;;;2.24;100.00
11339;BME280;5724;42.684;23.252;2023-11-21T06:00:16;94121.50;;;2.20;100.00
11339;BME280;5724;42.684;23.252;2023-11-21T06:03:07;94119.81;;;2.33;100.00
11339;BME280;5724;42.684;23.252;2023-11-21T06:05:53;94113.75;;;2.27;100.00
11339;BME280;5724;42.684;23.252;2023-11-21T06:08:39;94122.72;;;2.45;100.00
11339;BME280;5724;42.684;23.252;2023-11-21T06:11:25;94129.69;;;2.46;100.00
11339;BME280;5724;42.684;23.252;2023-11-21T06:14:11;94136.31;;;2.40;100.00
11339;BME280;5724;42.684;23.252;2023-11-21T06:16:56;94135.38;;;2.36;100.00
11339;BME280;5724;42.684;23.252;2023-11-21T06:19:44;94134.72;;;2.39;100.00
11339;BME280;5724;42.684;23.252;2023-11-21T06:22:31;94139.94;;;2.27;100.00
11339;BME280;5724;42.684;23.252;2023-11-21T06:25:17;94141.44;;;2.42;100.00
11339;BME280;5724;42.684;23.252;2023-11-21T06:28:03;94144.28;;;2.45;100.00
11339;BME280;5724;42.684;23.252;2023-11-21T06:30:49;94137.47;;;2.48;100.00
11339;BME280;5724;42.684;23.252;2023-11-21T06:33:36;94139.22;;;2.52;100.00
11339;BME280;5724;42.684;23.252;2023-11-21T06:36:22;94141.47;;;2.68;100.00
11339;BME280;5724;42.684;23.252;2023-11-21T06:39:07;94146.75;;;2.81;100.00
11339;BME280;5724;42.684;23.252;2023-11-21T06:41:54;94159.28;;;2.86;100.00
11339;BME280;5724;42.684;23.252;2023-11-21T06:44:40;94156.63;;;2.95;100.00
11339;BME280;5724;42.684;23.252;2023-11-21T06:47:27;94164.72;;;2.95;100.00
11339;BME280;5724;42.684;23.252;2023-11-21T06:50:15;94153.91;;;2.86;100.00
11339;BME280;5724;42.684;23.252;2023-11-21T06:53:01;94164.41;;;3.13;100.00
11339;BME280;5724;42.684;23.252;2023-11-21T06:55:49;94168.88;;;3.35;100.00
11339;BME280;5724;42.684;23.252;2023-11-21T06:58:35;94161.91;;;3.43;100.00
11339;BME280;5724;42.684;23.252;2023-11-21T07:01:21;94161.91;;;3.43;100.00
11339;BME280;5724;42.684;23.252;2023-11-21T07:04:07;94164.91;;;3.67;100.00
11339;BME280;5724;42.684;23.252;2023-11-21T07:06:54;94158.53;;;3.72;100.00
11339;BME280;5724;42.684;23.252;2023-11-21T07:09:40;94157.28;;;3.78;99.13
11339;BME280;5724;42.684;23.252;2023-11-21T07:12:25;94140.28;;;3.69;99.63
11339;BME280;5724;42.684;23.252;2023-11-21T07:15:11;94150.22;;;3.94;100.00
11339;BME280;5724;42.684;23.252;2023-11-21T07:17:58;94146.53;;;4.16;100.00
11339;BME280;5724;42.684;23.252;2023-11-21T07:20:43;94153.94;;;4.37;98.89
11339;BME280;5724;42.684;23.252;2023-11-21T07:23:29;94138.31;;;4.42;98.31
11339;BME280;5724;42.684;23.252;2023-11-21T07:26:15;94150.97;;;4.59;97.62
11339;BME280;5724;42.684;23.252;2023-11-21T07:29:02;94161.53;;;4.43;96.08
11339;BME280;5724;42.684;23.252;2023-11-21T07:31:52;94160.50;;;4.27;96.29
11339;BME280;5724;42.684;23.252;2023-11-21T07:34:38;94158.81;;;3.96;97.23
11339;BME280;5724;42.684;23.252;2023-11-21T07:37:28;94154.00;;;4.11;97.52
11339;BME280;5724;42.684;23.252;2023-11-21T07:40:14;94155.09;;;4.18;96.72
11339;BME280;5724;42.684;23.252;2023-11-21T07:43:00;94160.94;;;4.38;97.09
11339;BME280;5724;42.684;23.252;2023-11-21T07:45:46;94149.75;;;4.48;97.21
11339;BME280;5724;42.684;23.252;2023-11-21T07:48:32;94145.28;;;4.43;96.79
11339;BME280;5724;42.684;23.252;2023-11-21T07:51:18;94135.56;;;4.51;97.07
11339;BME280;5724;42.684;23.252;2023-11-21T07:54:04;94153.53;;;4.55;97.60
11339;BME280;5724;42.684;23.252;2023-11-21T07:56:51;94131.91;;;4.55;97.58
11339;BME280;5724;42.684;23.252;2023-11-21T07:59:36;94144.00;;;4.49;98.06
11339;BME280;5724;42.684;23.252;2023-11-21T08:02:22;94133.28;;;4.62;97.37
11339;BME280;5724;42.684;23.252;2023-11-21T08:05:08;94131.91;;;4.55;96.90
11339;BME280;5724;42.684;23.252;2023-11-21T08:07:54;94137.56;;;4.63;97.60
11339;BME280;5724;42.684;23.252;2023-11-21T08:10:40;94131.19;;;4.67;97.55
11339;BME280;5724;42.684;23.252;2023-11-21T08:13:29;94137.09;;;4.90;97.06
11339;BME280;5724;42.684;23.252;2023-11-21T08:16:18;94127.31;;;5.06;97.40
11339;BME280;5724;42.684;23.252;2023-11-21T08:19:04;94147.84;;;5.07;96.61
11339;BME280;5724;42.684;23.252;2023-11-21T08:21:51;94128.66;;;5.21;96.68
11339;BME280;5724;42.684;23.252;2023-11-21T08:24:36;94132.88;;;5.31;96.69
11339;BME280;5724;42.684;23.252;2023-11-21T08:27:22;94128.38;;;5.35;96.39
11339;BME280;5724;42.684;23.252;2023-11-21T08:30:10;94128.56;;;5.30;96.47
11339;BME280;5724;42.684;23.252;2023-11-21T08:33:04;94132.94;;;5.43;96.21
11339;BME280;5724;42.684;23.252;2023-11-21T08:35:50;94126.88;;;5.79;95.47
11339;BME280;5724;42.684;23.252;2023-11-21T08:38:36;94135.03;;;5.58;93.51
11339;BME280;5724;42.684;23.252;2023-11-21T08:41:24;94128.09;;;5.69;93.53
11339;BME280;5724;42.684;23.252;2023-11-21T08:44:10;94126.31;;;5.86;92.35
11339;BME280;5724;42.684;23.252;2023-11-21T08:46:57;94128.38;;;5.89;91.79
11339;BME280;5724;42.684;23.252;2023-11-21T08:49:43;94130.25;;;5.76;90.71
11339;BME280;5724;42.684;23.252;2023-11-21T08:52:29;94123.94;;;5.84;90.67
11339;BME280;5724;42.684;23.252;2023-11-21T08:55:15;94118.56;;;5.63;91.00
11339;BME280;5724;42.684;23.252;2023-11-21T08:58:01;94113.53;;;6.07;89.34
11339;BME280;5724;42.684;23.252;2023-11-21T09:00:49;94108.06;;;5.95;90.21
11339;BME280;5724;42.684;23.252;2023-11-21T09:03:38;94092.22;;;6.30;88.92
11339;BME280;5724;42.684;23.252;2023-11-21T09:06:24;94097.53;;;6.51;88.15
11339;BME280;5724;42.684;23.252;2023-11-21T09:09:10;94079.66;;;6.74;86.84
11339;BME280;5724;42.684;23.252;2023-11-21T09:11:55;94079.09;;;6.81;86.46
11339;BME280;5724;42.684;23.252;2023-11-21T09:14:42;94072.31;;;6.87;85.67
11339;BME280;5724;42.684;23.252;2023-11-21T09:17:29;94072.19;;;6.96;85.16
11339;BME280;5724;42.684;23.252;2023-11-21T09:20:15;94062.44;;;7.07;85.32
11339;BME280;5724;42.684;23.252;2023-11-21T09:23:02;94057.69;;;7.32;85.33
11339;BME280;5724;42.684;23.252;2023-11-21T09:25:48;94044.41;;;7.42;83.98
11339;BME280;5724;42.684;23.252;2023-11-21T09:28:35;94038.44;;;7.37;84.17
11339;BME280;5724;42.684;23.252;2023-11-21T09:31:23;94036.50;;;7.65;83.44
11339;BME280;5724;42.684;23.252;2023-11-21T09:34:09;94036.59;;;7.69;82.68
11339;BME280;5724;42.684;23.252;2023-11-21T09:36:57;94034.56;;;7.66;80.77
11339;BME280;5724;42.684;23.252;2023-11-21T09:39:42;94013.91;;;7.49;80.56
11339;BME280;5724;42.684;23.252;2023-11-21T09:42:46;94021.47;;;7.99;80.24
11339;BME280;5724;42.684;23.252;2023-11-21T09:45:35;94011.19;;;8.09;79.30
11339;BME280;5724;42.684;23.252;2023-11-21T09:48:23;93990.84;;;8.02;79.01
11339;BME280;5724;42.684;23.252;2023-11-21T09:51:10;93986.38;;;7.94;79.48
11339;BME280;5724;42.684;23.252;2023-11-21T09:53:57;93989.25;;;8.17;79.25
11339;BME280;5724;42.684;23.252;2023-11-21T09:56:45;93984.34;;;8.23;77.70
11339;BME280;5724;42.684;23.252;2023-11-21T09:59:31;93967.03;;;8.31;78.09
11339;BME280;5724;42.684;23.252;2023-11-21T10:02:18;93981.78;;;8.62;78.26
11339;BME280;5724;42.684;23.252;2023-11-21T10:05:07;93970.59;;;8.67;79.45
11339;BME280;5724;42.684;23.252;2023-11-21T10:07:56;93972.31;;;8.75;77.69
11339;BME280;5724;42.684;23.252;2023-11-21T10:10:44;93960.28;;;8.76;76.67
11339;BME280;5724;42.684;23.252;2023-11-21T10:13:31;93951.50;;;9.02;75.79
11339;BME280;5724;42.684;23.252;2023-11-21T10:16:19;93947.25;;;8.85;74.66
11339;BME280;5724;42.684;23.252;2023-11-21T10:19:10;93945.84;;;8.91;75.70
11339;BME280;5724;42.684;23.252;2023-11-21T10:22:00;93942.13;;;8.99;74.88
11339;BME280;5724;42.684;23.252;2023-11-21T10:24:47;93921.69;;;8.54;75.25
11339;BME280;5724;42.684;23.252;2023-11-21T10:27:34;93939.41;;;8.64;75.93
11339;BME280;5724;42.684;23.252;2023-11-21T10:30:20;93938.91;;;8.58;75.91
11339;BME280;5724;42.684;23.252;2023-11-21T10:33:07;93940.47;;;8.40;76.72
11339;BME280;5724;42.684;23.252;2023-11-21T10:35:56;93931.16;;;8.41;78.03
11339;BME280;5724;42.684;23.252;2023-11-21T10:38:42;93914.38;;;8.58;77.66
11339;BME280;5724;42.684;23.252;2023-11-21T10:41:29;93925.72;;;8.60;77.50
11339;BME280;5724;42.684;23.252;2023-11-21T10:44:15;93933.78;;;8.73;76.78
11339;BME280;5724;42.684;23.252;2023-11-21T10:47:09;93926.19;;;8.47;76.09
11339;BME280;5724;42.684;23.252;2023-11-21T10:50:00;93920.16;;;8.73;75.71
11339;BME280;5724;42.684;23.252;2023-11-21T10:52:46;93913.84;;;8.69;75.12
11339;BME280;5724;42.684;23.252;2023-11-21T10:55:33;93902.81;;;8.62;75.33
11339;BME280;5724;42.684;23.252;2023-11-21T10:58:20;93905.03;;;8.75;74.94
11339;BME280;5724;42.684;23.252;2023-11-21T11:01:06;93905.22;;;8.67;74.46
11339;BME280;5724;42.684;23.252;2023-11-21T11:03:53;93904.59;;;8.73;74.56
11339;BME280;5724;42.684;23.252;2023-11-21T11:06:45;93902.16;;;8.87;74.20
11339;BME280;5724;42.684;23.252;2023-11-21T11:09:38;93900.38;;;8.95;74.09
11339;BME280;5724;42.684;23.252;2023-11-21T11:12:24;93894.69;;;9.04;73.36
11339;BME280;5724;42.684;23.252;2023-11-21T11:15:10;93885.50;;;9.12;72.42
11339;BME280;5724;42.684;23.252;2023-11-21T11:17:56;93887.03;;;9.09;73.41
11339;BME280;5724;42.684;23.252;2023-11-21T11:20:45;93875.25;;;9.05;72.70
11339;BME280;5724;42.684;23.252;2023-11-21T11:35:17;93857.47;;;9.11;72.19
11339;BME280;5724;42.684;23.252;2023-11-21T11:38:04;93862.06;;;9.27;72.38
11339;BME280;5724;42.684;23.252;2023-11-21T11:40:52;93873.00;;;8.49;75.79
11339;BME280;5724;42.684;23.252;2023-11-21T11:43:39;93870.03;;;8.23;76.50
11339;BME280;5724;42.684;23.252;2023-11-21T11:46:44;93871.94;;;7.87;77.91
11339;BME280;5724;42.684;23.252;2023-11-21T11:49:33;93870.28;;;7.51;80.73
11339;BME280;5724;42.684;23.252;2023-11-21T11:52:36;93868.44;;;7.39;82.64
11339;BME280;5724;42.684;23.252;2023-11-21T11:55:24;93860.13;;;7.48;84.39
11339;BME280;5724;42.684;23.252;2023-11-21T11:58:10;93857.94;;;7.38;86.69
11339;BME280;5724;42.684;23.252;2023-11-21T12:00:57;93852.31;;;7.15;87.30
11339;BME280;5724;42.684;23.252;2023-11-21T12:03:44;93868.78;;;7.06;89.93
11339;BME280;5724;42.684;23.252;2023-11-21T12:06:36;93868.72;;;6.91;89.52
11339;BME280;5724;42.684;23.252;2023-11-21T12:09:22;93854.22;;;6.71;93.95
11339;BME280;5724;42.684;23.252;2023-11-21T12:12:10;93862.06;;;6.60;95.68
11339;BME280;5724;42.684;23.252;2023-11-21T12:14:56;93854.78;;;6.48;96.96
11339;BME280;5724;42.684;23.252;2023-11-21T12:17:43;93861.47;;;6.39;98.09
11339;BME280;5724;42.684;23.252;2023-11-21T12:20:30;93856.19;;;6.30;97.98
11339;BME280;5724;42.684;23.252;2023-11-21T12:23:17;93854.25;;;6.30;99.04
11339;BME280;5724;42.684;23.252;2023-11-21T12:26:03;93842.06;;;6.24;98.33
11339;BME280;5724;42.684;23.252;2023-11-21T12:28:55;93853.59;;;6.21;97.00
11339;BME280;5724;42.684;23.252;2023-11-21T12:31:41;93859.81;;;6.22;98.91
11339;BME280;5724;42.684;23.252;2023-11-21T12:34:27;93859.25;;;6.16;99.88
11339;BME280;5724;42.684;23.252;2023-11-21T12:37:13;93852.81;;;6.21;98.36
11339;BME280;5724;42.684;23.252;2023-11-21T12:39:58;93854.47;;;6.25;98.18
11339;BME280;5724;42.684;23.252;2023-11-21T12:42:45;93845.13;;;6.23;98.64
11339;BME280;5724;42.684;23.252;2023-11-21T12:45:33;93830.09;;;6.13;99.63
11339;BME280;5724;42.684;23.252;2023-11-21T12:48:19;93832.59;;;6.18;98.69
11339;BME280;5724;42.684;23.252;2023-11-21T12:51:11;93831.91;;;6.21;98.01
11339;BME280;5724;42.684;23.252;2023-11-21T12:53:57;93828.75;;;6.19;99.56
11339;BME280;5724;42.684;23.252;2023-11-21T12:56:49;93819.22;;;6.25;100.00
11339;BME280;5724;42.684;23.252;2023-11-21T12:59:35;93820.50;;;6.16;100.00
11339;BME280;5724;42.684;23.252;2023-11-21T13:02:20;93811.69;;;6.19;100.00
11339;BME280;5724;42.684;23.252;2023-11-21T13:05:07;93806.94;;;6.16;100.00
11339;BME280;5724;42.684;23.252;2023-11-21T13:08:00;93806.50;;;6.14;100.00
11339;BME280;5724;42.684;23.252;2023-11-21T13:10:52;93813.13;;;6.16;100.00
11339;BME280;5724;42.684;23.252;2023-11-21T13:13:41;93805.34;;;6.15;98.92
11339;BME280;5724;42.684;23.252;2023-11-21T13:16:28;93809.06;;;6.22;100.00
11339;BME280;5724;42.684;23.252;2023-11-21T13:19:14;93816.09;;;6.11;100.00
11339;BME280;5724;42.684;23.252;2023-11-21T13:22:00;93811.59;;;6.03;100.00
11339;BME280;5724;42.684;23.252;2023-11-21T13:24:49;93813.63;;;6.06;100.00
11339;BME280;5724;42.684;23.252;2023-11-21T13:27:37;93804.34;;;6.07;100.00
11339;BME280;5724;42.684;23.252;2023-11-21T13:30:24;93807.06;;;6.07;100.00
11339;BME280;5724;42.684;23.252;2023-11-21T13:33:14;93783.34;;;6.04;100.00
11339;BME280;5724;42.684;23.252;2023-11-21T13:36:07;93787.94;;;6.16;100.00
11339;BME280;5724;42.684;23.252;2023-11-21T13:38:54;93793.00;;;6.17;100.00
11339;BME280;5724;42.684;23.252;2023-11-21T13:41:40;93794.06;;;6.13;100.00
11339;BME280;5724;42.684;23.252;2023-11-21T13:44:26;93791.91;;;6.18;100.00
11339;BME280;5724;42.684;23.252;2023-11-21T13:47:14;93787.94;;;6.16;100.00
11339;BME280;5724;42.684;23.252;2023-11-21T13:50:00;93785.44;;;6.23;100.00
11339;BME280;5724;42.684;23.252;2023-11-21T13:52:46;93760.00;;;6.27;100.00
11339;BME280;5724;42.684;23.252;2023-11-21T13:55:32;93775.78;;;6.38;100.00
11339;BME280;5724;42.684;23.252;2023-11-21T13:58:18;93774.19;;;6.37;100.00
11339;BME280;5724;42.684;23.252;2023-11-21T14:01:08;93778.94;;;6.40;100.00
11339;BME280;5724;42.684;23.252;2023-11-21T14:04:12;93782.78;;;6.39;100.00
11339;BME280;5724;42.684;23.252;2023-11-21T14:07:01;93772.81;;;6.43;100.00
11339;BME280;5724;42.684;23.252;2023-11-21T14:10:05;93783.22;;;6.41;100.00
11339;BME280;5724;42.684;23.252;2023-11-21T14:12:53;93783.47;;;6.36;100.00
11339;BME280;5724;42.684;23.252;2023-11-21T14:15:39;93783.22;;;6.41;100.00
11339;BME280;5724;42.684;23.252;2023-11-21T14:18:30;93786.16;;;6.48;100.00
11339;BME280;5724;42.684;23.252;2023-11-21T14:21:22;93798.75;;;6.56;100.00
11339;BME280;5724;42.684;23.252;2023-11-21T14:24:09;93795.41;;;6.47;100.00
11339;BME280;5724;42.684;23.252;2023-11-21T14:27:03;93789.94;;;6.59;100.00
11339;BME280;5724;42.684;23.252;2023-11-21T14:29:49;93787.72;;;6.65;100.00
11339;BME280;5724;42.684;23.252;2023-11-21T14:32:38;93790.56;;;6.68;100.00
11339;BME280;5724;42.684;23.252;2023-11-21T14:35:24;93774.31;;;6.56;100.00
11339;BME280;5724;42.684;23.252;2023-11-21T14:38:11;93777.34;;;6.67;100.00
11339;BME280;5724;42.684;23.252;2023-11-21T14:40:59;93787.84;;;6.68;100.00
11339;BME280;5724;42.684;23.252;2023-11-21T14:43:45;93778.63;;;6.57;100.00
11339;BME280;5724;42.684;23.252;2023-11-21T14:46:34;93761.56;;;6.56;100.00
11339;BME280;5724;42.684;23.252;2023-11-21T14:49:22;93763.94;;;6.58;100.00
11339;BME280;5724;42.684;23.252;2023-11-21T14:52:09;93764.38;;;6.60;100.00
11339;BME280;5724;42.684;23.252;2023-11-21T14:55:13;93780.38;;;6.65;100.00
11339;BME280;5724;42.684;23.252;2023-11-21T14:58:18;93770.22;;;6.62;100.00
11339;BME280;5724;42.684;23.252;2023-11-21T15:01:13;93773.72;;;6.63;100.00